sensor_id;sensor_type;location;lat;lon;timestamp;P1;durP1;ratioP1;P2;durP2;ratioP2
23260;SDS011;11799;47.740;-3.390;2023-04-05T00:01:25;14.50;;;10.27;;
23260;SDS011;11799;47.740;-3.390;2023-04-05T00:03:54;14.30;;;10.48;;
23260;SDS011;11799;47.740;-3.390;2023-04-05T00:06:22;16.55;;;10.80;;
23260;SDS011;11799;47.740;-3.390;2023-04-05T00:08:51;13.40;;;10.07;;
23260;SDS011;11799;47.740;-3.390;2023-04-05T00:11:20;13.00;;;9.95;;
23260;SDS011;11799;47.740;-3.390;2023-04-05T00:13:46;15.43;;;9.55;;
23260;SDS011;11799;47.740;-3.390;2023-04-05T00:16:12;12.27;;;9.68;;
23260;SDS011;11799;47.740;-3.390;2023-04-05T00:18:38;13.10;;;9.35;;
23260;SDS011;11799;47.740;-3.390;2023-04-05T00:21:04;12.38;;;8.95;;
23260;SDS011;11799;47.740;-3.390;2023-04-05T00:23:30;13.45;;;9.32;;
23260;SDS011;11799;47.740;-3.390;2023-04-05T00:26:03;11.57;;;9.20;;
23260;SDS011;11799;47.740;-3.390;2023-04-05T00:28:29;13.55;;;9.40;;
23260;SDS011;11799;47.740;-3.390;2023-04-05T00:30:55;14.55;;;10.55;;
23260;SDS011;11799;47.740;-3.390;2023-04-05T00:33:20;12.40;;;9.25;;
23260;SDS011;11799;47.740;-3.390;2023-04-05T00:35:46;13.43;;;10.30;;
23260;SDS011;11799;47.740;-3.390;2023-04-05T00:38:11;11.82;;;9.57;;
23260;SDS011;11799;47.740;-3.390;2023-04-05T00:40:37;15.52;;;9.90;;
23260;SDS011;11799;47.740;-3.390;2023-04-05T00:43:02;12.52;;;9.88;;
23260;SDS011;11799;47.740;-3.390;2023-04-05T00:45:28;12.73;;;10.00;;
23260;SDS011;11799;47.740;-3.390;2023-04-05T00:47:53;16.67;;;10.13;;
23260;SDS011;11799;47.740;-3.390;2023-04-05T00:50:20;13.98;;;10.48;;
23260;SDS011;11799;47.740;-3.390;2023-04-05T00:52:45;14.73;;;10.30;;
23260;SDS011;11799;47.740;-3.390;2023-04-05T00:55:12;15.85;;;10.20;;
23260;SDS011;11799;47.740;-3.390;2023-04-05T00:57:38;15.48;;;11.00;;
23260;SDS011;11799;47.740;-3.390;2023-04-05T01:00:04;16.98;;;11.40;;
23260;SDS011;11799;47.740;-3.390;2023-04-05T01:02:40;14.45;;;10.05;;
23260;SDS011;11799;47.740;-3.390;2023-04-05T01:05:15;11.68;;;9.52;;
23260;SDS011;11799;47.740;-3.390;2023-04-05T01:07:57;14.13;;;10.52;;
23260;SDS011;11799;47.740;-3.390;2023-04-05T01:10:34;19.35;;;12.52;;
23260;SDS011;11799;47.740;-3.390;2023-04-05T01:13:03;14.50;;;11.02;;
23260;SDS011;11799;47.740;-3.390;2023-04-05T01:15:30;13.77;;;10.80;;
23260;SDS011;11799;47.740;-3.390;2023-04-05T01:17:56;12.45;;;10.55;;
23260;SDS011;11799;47.740;-3.390;2023-04-05T01:20:26;12.85;;;10.10;;
23260;SDS011;11799;47.740;-3.390;2023-04-05T01:25:53;16.42;;;10.50;;
23260;SDS011;11799;47.740;-3.390;2023-04-05T01:28:43;14.02;;;9.95;;
23260;SDS011;11799;47.740;-3.390;2023-04-05T01:34:39;14.02;;;10.15;;
23260;SDS011;11799;47.740;-3.390;2023-04-05T01:37:24;16.02;;;10.05;;
23260;SDS011;11799;47.740;-3.390;2023-04-05T01:39:52;16.35;;;11.50;;
23260;SDS011;11799;47.740;-3.390;2023-04-05T01:42:24;14.07;;;10.38;;
23260;SDS011;11799;47.740;-3.390;2023-04-05T01:44:54;15.25;;;11.38;;
23260;SDS011;11799;47.740;-3.390;2023-04-05T01:49:46;17.40;;;11.77;;
23260;SDS011;11799;47.740;-3.390;2023-04-05T01:52:12;13.85;;;11.10;;
23260;SDS011;11799;47.740;-3.390;2023-04-05T01:54:38;16.27;;;11.45;;
23260;SDS011;11799;47.740;-3.390;2023-04-05T01:57:04;14.77;;;11.80;;
23260;SDS011;11799;47.740;-3.390;2023-04-05T01:59:30;22.17;;;12.02;;
23260;SDS011;11799;47.740;-3.390;2023-04-05T02:01:57;16.60;;;10.93;;
23260;SDS011;11799;47.740;-3.390;2023-04-05T02:04:23;18.13;;;11.82;;
23260;SDS011;11799;47.740;-3.390;2023-04-05T02:06:49;15.23;;;10.25;;
23260;SDS011;11799;47.740;-3.390;2023-04-05T02:09:14;20.08;;;13.00;;
23260;SDS011;11799;47.740;-3.390;2023-04-05T02:11:40;20.55;;;11.82;;
23260;SDS011;11799;47.740;-3.390;2023-04-05T02:14:05;16.20;;;10.63;;
23260;SDS011;11799;47.740;-3.390;2023-04-05T02:16:31;17.88;;;11.23;;
23260;SDS011;11799;47.740;-3.390;2023-04-05T02:18:57;15.57;;;10.68;;
23260;SDS011;11799;47.740;-3.390;2023-04-05T02:21:24;13.48;;;10.23;;
23260;SDS011;11799;47.740;-3.390;2023-04-05T02:23:50;16.15;;;9.82;;
23260;SDS011;11799;47.740;-3.390;2023-04-05T02:26:16;14.48;;;10.10;;
23260;SDS011;11799;47.740;-3.390;2023-04-05T02:28:42;14.75;;;9.95;;
23260;SDS011;11799;47.740;-3.390;2023-04-05T02:31:08;15.23;;;10.57;;
23260;SDS011;11799;47.740;-3.390;2023-04-05T02:33:35;15.30;;;10.65;;
23260;SDS011;11799;47.740;-3.390;2023-04-05T02:36:05;16.10;;;10.70;;
23260;SDS011;11799;47.740;-3.390;2023-04-05T02:38:32;12.45;;;9.73;;
23260;SDS011;11799;47.740;-3.390;2023-04-05T02:40:58;14.43;;;10.25;;
23260;SDS011;11799;47.740;-3.390;2023-04-05T02:43:24;15.30;;;10.32;;
23260;SDS011;11799;47.740;-3.390;2023-04-05T02:45:50;13.32;;;10.60;;
23260;SDS011;11799;47.740;-3.390;2023-04-05T02:48:17;14.43;;;10.18;;
23260;SDS011;11799;47.740;-3.390;2023-04-05T02:50:46;12.80;;;9.77;;
23260;SDS011;11799;47.740;-3.390;2023-04-05T02:53:16;18.05;;;10.95;;
23260;SDS011;11799;47.740;-3.390;2023-04-05T02:55:54;13.25;;;9.57;;
23260;SDS011;11799;47.740;-3.390;2023-04-05T02:58:22;14.60;;;10.18;;
23260;SDS011;11799;47.740;-3.390;2023-04-05T03:00:48;15.70;;;10.48;;
23260;SDS011;11799;47.740;-3.390;2023-04-05T03:03:26;13.85;;;10.60;;
23260;SDS011;11799;47.740;-3.390;2023-04-05T03:05:57;13.88;;;10.13;;
23260;SDS011;11799;47.740;-3.390;2023-04-05T03:08:37;12.35;;;9.98;;
23260;SDS011;11799;47.740;-3.390;2023-04-05T03:11:05;14.75;;;10.23;;
23260;SDS011;11799;47.740;-3.390;2023-04-05T03:13:32;15.13;;;10.30;;
23260;SDS011;11799;47.740;-3.390;2023-04-05T03:15:58;14.15;;;10.50;;
23260;SDS011;11799;47.740;-3.390;2023-04-05T03:18:26;14.95;;;10.40;;
23260;SDS011;11799;47.740;-3.390;2023-04-05T03:20:59;14.05;;;10.45;;
23260;SDS011;11799;47.740;-3.390;2023-04-05T03:23:27;19.48;;;12.75;;
23260;SDS011;11799;47.740;-3.390;2023-04-05T03:25:58;17.35;;;11.30;;
23260;SDS011;11799;47.740;-3.390;2023-04-05T03:28:28;14.02;;;10.13;;
23260;SDS011;11799;47.740;-3.390;2023-04-05T03:31:00;14.38;;;11.30;;
23260;SDS011;11799;47.740;-3.390;2023-04-05T03:33:26;14.07;;;10.77;;
23260;SDS011;11799;47.740;-3.390;2023-04-05T03:35:52;13.82;;;10.77;;
23260;SDS011;11799;47.740;-3.390;2023-04-05T03:38:18;15.68;;;11.05;;
23260;SDS011;11799;47.740;-3.390;2023-04-05T03:41:01;13.95;;;11.23;;
23260;SDS011;11799;47.740;-3.390;2023-04-05T03:43:27;17.95;;;12.13;;
23260;SDS011;11799;47.740;-3.390;2023-04-05T03:45:54;13.50;;;11.27;;
23260;SDS011;11799;47.740;-3.390;2023-04-05T03:48:20;15.73;;;11.77;;
23260;SDS011;11799;47.740;-3.390;2023-04-05T03:50:47;20.45;;;12.65;;
23260;SDS011;11799;47.740;-3.390;2023-04-05T03:53:13;19.05;;;12.75;;
23260;SDS011;11799;47.740;-3.390;2023-04-05T03:55:46;16.38;;;11.18;;
23260;SDS011;11799;47.740;-3.390;2023-04-05T03:58:15;15.18;;;10.65;;
23260;SDS011;11799;47.740;-3.390;2023-04-05T04:00:41;15.68;;;10.63;;
23260;SDS011;11799;47.740;-3.390;2023-04-05T04:03:12;18.33;;;10.65;;
23260;SDS011;11799;47.740;-3.390;2023-04-05T04:05:42;13.35;;;10.07;;
23260;SDS011;11799;47.740;-3.390;2023-04-05T04:08:09;14.95;;;10.25;;
23260;SDS011;11799;47.740;-3.390;2023-04-05T04:10:35;15.15;;;10.77;;
23260;SDS011;11799;47.740;-3.390;2023-04-05T04:13:05;14.88;;;10.55;;
23260;SDS011;11799;47.740;-3.390;2023-04-05T04:15:32;16.55;;;11.38;;
23260;SDS011;11799;47.740;-3.390;2023-04-05T04:18:12;19.73;;;12.13;;
23260;SDS011;11799;47.740;-3.390;2023-04-05T04:20:54;14.45;;;10.93;;
23260;SDS011;11799;47.740;-3.390;2023-04-05T04:23:39;16.20;;;10.73;;
23260;SDS011;11799;47.740;-3.390;2023-04-05T04:26:23;15.70;;;10.52;;
23260;SDS011;11799;47.740;-3.390;2023-04-05T04:29:13;14.60;;;10.43;;
23260;SDS011;11799;47.740;-3.390;2023-04-05T04:32:15;14.20;;;10.10;;
23260;SDS011;11799;47.740;-3.390;2023-04-05T04:34:59;16.80;;;10.10;;
23260;SDS011;11799;47.740;-3.390;2023-04-05T04:37:55;13.35;;;9.93;;
23260;SDS011;11799;47.740;-3.390;2023-04-05T04:40:44;15.18;;;10.98;;
23260;SDS011;11799;47.740;-3.390;2023-04-05T04:43:35;15.57;;;10.52;;
23260;SDS011;11799;47.740;-3.390;2023-04-05T04:46:26;13.85;;;10.43;;
23260;SDS011;11799;47.740;-3.390;2023-04-05T04:49:15;17.25;;;11.82;;
23260;SDS011;11799;47.740;-3.390;2023-04-05T04:51:47;14.60;;;10.98;;
23260;SDS011;11799;47.740;-3.390;2023-04-05T04:54:12;17.88;;;11.57;;
23260;SDS011;11799;47.740;-3.390;2023-04-05T04:56:40;23.17;;;12.57;;
23260;SDS011;11799;47.740;-3.390;2023-04-05T04:59:06;16.02;;;12.18;;
23260;SDS011;11799;47.740;-3.390;2023-04-05T05:01:32;14.45;;;10.20;;
23260;SDS011;11799;47.740;-3.390;2023-04-05T05:03:59;15.95;;;10.77;;
23260;SDS011;11799;47.740;-3.390;2023-04-05T05:06:30;20.40;;;12.07;;
23260;SDS011;11799;47.740;-3.390;2023-04-05T05:08:55;18.67;;;11.55;;
23260;SDS011;11799;47.740;-3.390;2023-04-05T05:11:21;14.98;;;10.63;;
23260;SDS011;11799;47.740;-3.390;2023-04-05T05:13:47;16.63;;;12.02;;
23260;SDS011;11799;47.740;-3.390;2023-04-05T05:16:18;14.52;;;9.70;;
23260;SDS011;11799;47.740;-3.390;2023-04-05T05:18:45;18.20;;;11.38;;
23260;SDS011;11799;47.740;-3.390;2023-04-05T05:21:12;16.38;;;10.73;;
23260;SDS011;11799;47.740;-3.390;2023-04-05T05:23:38;15.15;;;9.80;;
23260;SDS011;11799;47.740;-3.390;2023-04-05T05:26:04;14.38;;;10.93;;
23260;SDS011;11799;47.740;-3.390;2023-04-05T05:28:30;16.48;;;10.75;;
23260;SDS011;11799;47.740;-3.390;2023-04-05T05:30:56;16.00;;;10.35;;
23260;SDS011;11799;47.740;-3.390;2023-04-05T05:33:21;18.13;;;11.35;;
23260;SDS011;11799;47.740;-3.390;2023-04-05T05:35:47;16.42;;;10.68;;
23260;SDS011;11799;47.740;-3.390;2023-04-05T05:38:14;12.73;;;9.95;;
23260;SDS011;11799;47.740;-3.390;2023-04-05T05:40:39;18.15;;;13.05;;
23260;SDS011;11799;47.740;-3.390;2023-04-05T05:43:05;16.38;;;11.38;;
23260;SDS011;11799;47.740;-3.390;2023-04-05T05:45:31;17.65;;;10.57;;
23260;SDS011;11799;47.740;-3.390;2023-04-05T05:47:56;15.45;;;11.45;;
23260;SDS011;11799;47.740;-3.390;2023-04-05T05:50:22;17.88;;;12.02;;
23260;SDS011;11799;47.740;-3.390;2023-04-05T05:52:47;17.58;;;12.13;;
23260;SDS011;11799;47.740;-3.390;2023-04-05T05:55:13;16.45;;;11.85;;
23260;SDS011;11799;47.740;-3.390;2023-04-05T05:57:38;14.32;;;11.10;;
23260;SDS011;11799;47.740;-3.390;2023-04-05T06:00:06;15.00;;;10.73;;
23260;SDS011;11799;47.740;-3.390;2023-04-05T06:02:40;16.15;;;10.77;;
23260;SDS011;11799;47.740;-3.390;2023-04-05T06:05:05;15.48;;;10.55;;
23260;SDS011;11799;47.740;-3.390;2023-04-05T06:07:34;19.48;;;12.07;;
23260;SDS011;11799;47.740;-3.390;2023-04-05T06:10:00;14.75;;;11.40;;
23260;SDS011;11799;47.740;-3.390;2023-04-05T06:12:26;16.90;;;12.32;;
23260;SDS011;11799;47.740;-3.390;2023-04-05T06:14:51;16.45;;;11.68;;
23260;SDS011;11799;47.740;-3.390;2023-04-05T06:17:17;18.77;;;12.70;;
23260;SDS011;11799;47.740;-3.390;2023-04-05T06:19:42;18.45;;;12.75;;
23260;SDS011;11799;47.740;-3.390;2023-04-05T06:22:08;18.42;;;12.07;;
23260;SDS011;11799;47.740;-3.390;2023-04-05T06:24:33;19.60;;;12.45;;
23260;SDS011;11799;47.740;-3.390;2023-04-05T06:26:59;22.60;;;14.32;;
23260;SDS011;11799;47.740;-3.390;2023-04-05T06:29:25;23.50;;;15.65;;
23260;SDS011;11799;47.740;-3.390;2023-04-05T06:31:50;21.95;;;13.38;;
23260;SDS011;11799;47.740;-3.390;2023-04-05T06:34:16;22.77;;;14.15;;
23260;SDS011;11799;47.740;-3.390;2023-04-05T06:36:42;22.80;;;13.20;;
23260;SDS011;11799;47.740;-3.390;2023-04-05T06:39:08;18.58;;;12.20;;
23260;SDS011;11799;47.740;-3.390;2023-04-05T06:41:33;18.00;;;12.57;;
23260;SDS011;11799;47.740;-3.390;2023-04-05T06:43:59;20.85;;;12.80;;
23260;SDS011;11799;47.740;-3.390;2023-04-05T06:46:24;20.15;;;12.55;;
23260;SDS011;11799;47.740;-3.390;2023-04-05T06:48:51;19.35;;;12.63;;
23260;SDS011;11799;47.740;-3.390;2023-04-05T06:51:17;19.98;;;13.07;;
23260;SDS011;11799;47.740;-3.390;2023-04-05T06:53:42;19.10;;;13.30;;
23260;SDS011;11799;47.740;-3.390;2023-04-05T06:56:08;22.85;;;12.43;;
23260;SDS011;11799;47.740;-3.390;2023-04-05T06:58:33;18.30;;;12.57;;
23260;SDS011;11799;47.740;-3.390;2023-04-05T07:01:00;17.65;;;11.77;;
23260;SDS011;11799;47.740;-3.390;2023-04-05T07:03:25;19.80;;;12.60;;
23260;SDS011;11799;47.740;-3.390;2023-04-05T07:05:55;17.58;;;11.90;;
23260;SDS011;11799;47.740;-3.390;2023-04-05T07:08:26;17.20;;;12.25;;
23260;SDS011;11799;47.740;-3.390;2023-04-05T07:10:52;21.00;;;11.82;;
23260;SDS011;11799;47.740;-3.390;2023-04-05T07:13:18;17.55;;;12.30;;
23260;SDS011;11799;47.740;-3.390;2023-04-05T07:15:45;20.42;;;12.10;;
23260;SDS011;11799;47.740;-3.390;2023-04-05T07:18:11;18.02;;;11.82;;
23260;SDS011;11799;47.740;-3.390;2023-04-05T07:20:37;17.10;;;11.20;;
23260;SDS011;11799;47.740;-3.390;2023-04-05T07:23:03;16.70;;;10.93;;
23260;SDS011;11799;47.740;-3.390;2023-04-05T07:25:30;17.40;;;11.95;;
23260;SDS011;11799;47.740;-3.390;2023-04-05T07:27:56;17.45;;;11.98;;
23260;SDS011;11799;47.740;-3.390;2023-04-05T07:30:22;16.52;;;11.20;;
23260;SDS011;11799;47.740;-3.390;2023-04-05T07:32:47;16.20;;;11.30;;
23260;SDS011;11799;47.740;-3.390;2023-04-05T07:35:13;16.75;;;11.85;;
23260;SDS011;11799;47.740;-3.390;2023-04-05T07:37:39;20.13;;;11.00;;
23260;SDS011;11799;47.740;-3.390;2023-04-05T07:40:05;15.45;;;11.40;;
23260;SDS011;11799;47.740;-3.390;2023-04-05T07:42:31;13.82;;;10.93;;
23260;SDS011;11799;47.740;-3.390;2023-04-05T07:44:57;16.50;;;11.68;;
23260;SDS011;11799;47.740;-3.390;2023-04-05T07:47:23;16.27;;;11.25;;
23260;SDS011;11799;47.740;-3.390;2023-04-05T07:49:49;19.65;;;10.85;;
23260;SDS011;11799;47.740;-3.390;2023-04-05T07:52:14;17.02;;;11.32;;
23260;SDS011;11799;47.740;-3.390;2023-04-05T07:54:40;16.05;;;10.48;;
23260;SDS011;11799;47.740;-3.390;2023-04-05T07:57:08;16.30;;;11.25;;
23260;SDS011;11799;47.740;-3.390;2023-04-05T07:59:34;14.20;;;10.25;;
23260;SDS011;11799;47.740;-3.390;2023-04-05T08:02:00;14.57;;;10.45;;
23260;SDS011;11799;47.740;-3.390;2023-04-05T08:04:25;14.93;;;10.80;;
23260;SDS011;11799;47.740;-3.390;2023-04-05T08:06:51;16.67;;;10.38;;
23260;SDS011;11799;47.740;-3.390;2023-04-05T08:09:17;15.40;;;10.68;;
23260;SDS011;11799;47.740;-3.390;2023-04-05T08:11:42;16.20;;;11.07;;
23260;SDS011;11799;47.740;-3.390;2023-04-05T08:14:08;16.30;;;10.25;;
23260;SDS011;11799;47.740;-3.390;2023-04-05T08:16:34;14.73;;;10.57;;
23260;SDS011;11799;47.740;-3.390;2023-04-05T08:19:00;19.48;;;11.00;;
23260;SDS011;11799;47.740;-3.390;2023-04-05T08:21:26;15.95;;;10.98;;
23260;SDS011;11799;47.740;-3.390;2023-04-05T08:23:51;17.23;;;11.32;;
23260;SDS011;11799;47.740;-3.390;2023-04-05T08:26:17;16.80;;;11.27;;
23260;SDS011;11799;47.740;-3.390;2023-04-05T08:28:43;14.77;;;11.35;;
23260;SDS011;11799;47.740;-3.390;2023-04-05T08:31:09;21.75;;;11.20;;
23260;SDS011;11799;47.740;-3.390;2023-04-05T08:33:34;16.60;;;11.57;;
23260;SDS011;11799;47.740;-3.390;2023-04-05T08:36:06;17.83;;;11.35;;
23260;SDS011;11799;47.740;-3.390;2023-04-05T08:38:33;23.98;;;12.75;;
23260;SDS011;11799;47.740;-3.390;2023-04-05T08:41:06;20.05;;;11.80;;
23260;SDS011;11799;47.740;-3.390;2023-04-05T08:46:25;21.52;;;11.50;;
23260;SDS011;11799;47.740;-3.390;2023-04-05T08:48:51;20.45;;;10.93;;
23260;SDS011;11799;47.740;-3.390;2023-04-05T08:51:20;22.42;;;11.00;;
23260;SDS011;11799;47.740;-3.390;2023-04-05T08:53:46;16.80;;;11.25;;
23260;SDS011;11799;47.740;-3.390;2023-04-05T08:56:18;15.15;;;10.52;;
23260;SDS011;11799;47.740;-3.390;2023-04-05T08:59:08;15.40;;;10.40;;
23260;SDS011;11799;47.740;-3.390;2023-04-05T09:01:37;17.52;;;9.50;;
23260;SDS011;11799;47.740;-3.390;2023-04-05T09:04:21;17.25;;;10.60;;
23260;SDS011;11799;47.740;-3.390;2023-04-05T09:06:49;17.67;;;11.25;;
23260;SDS011;11799;47.740;-3.390;2023-04-05T09:09:15;19.17;;;11.02;;
23260;SDS011;11799;47.740;-3.390;2023-04-05T09:11:43;19.45;;;11.30;;
23260;SDS011;11799;47.740;-3.390;2023-04-05T09:14:08;16.20;;;10.10;;
23260;SDS011;11799;47.740;-3.390;2023-04-05T09:16:36;15.18;;;10.23;;
23260;SDS011;11799;47.740;-3.390;2023-04-05T09:19:03;17.70;;;10.80;;
23260;SDS011;11799;47.740;-3.390;2023-04-05T09:21:29;16.60;;;10.23;;
23260;SDS011;11799;47.740;-3.390;2023-04-05T09:24:15;16.35;;;10.77;;
23260;SDS011;11799;47.740;-3.390;2023-04-05T09:27:10;20.53;;;11.07;;
23260;SDS011;11799;47.740;-3.390;2023-04-05T09:29:42;17.15;;;10.32;;
23260;SDS011;11799;47.740;-3.390;2023-04-05T09:32:12;17.13;;;10.40;;
23260;SDS011;11799;47.740;-3.390;2023-04-05T09:34:39;17.70;;;11.10;;
23260;SDS011;11799;47.740;-3.390;2023-04-05T09:37:14;18.10;;;10.93;;
23260;SDS011;11799;47.740;-3.390;2023-04-05T09:39:44;15.35;;;10.20;;
23260;SDS011;11799;47.740;-3.390;2023-04-05T09:42:11;17.88;;;10.65;;
23260;SDS011;11799;47.740;-3.390;2023-04-05T09:44:52;14.73;;;9.25;;
23260;SDS011;11799;47.740;-3.390;2023-04-05T09:47:26;16.67;;;10.35;;
23260;SDS011;11799;47.740;-3.390;2023-04-05T09:49:59;14.80;;;10.48;;
23260;SDS011;11799;47.740;-3.390;2023-04-05T09:52:27;16.40;;;10.38;;
23260;SDS011;11799;47.740;-3.390;2023-04-05T09:54:56;14.20;;;8.93;;
23260;SDS011;11799;47.740;-3.390;2023-04-05T09:57:27;15.70;;;10.52;;
23260;SDS011;11799;47.740;-3.390;2023-04-05T09:59:56;20.25;;;9.43;;
23260;SDS011;11799;47.740;-3.390;2023-04-05T10:02:22;14.75;;;8.30;;
23260;SDS011;11799;47.740;-3.390;2023-04-05T10:04:48;13.98;;;9.45;;
23260;SDS011;11799;47.740;-3.390;2023-04-05T10:07:15;13.98;;;8.27;;
23260;SDS011;11799;47.740;-3.390;2023-04-05T10:09:46;14.48;;;8.63;;
23260;SDS011;11799;47.740;-3.390;2023-04-05T10:12:13;12.98;;;8.57;;
23260;SDS011;11799;47.740;-3.390;2023-04-05T10:14:52;12.97;;;9.77;;
23260;SDS011;11799;47.740;-3.390;2023-04-05T10:20:13;13.45;;;9.48;;
23260;SDS011;11799;47.740;-3.390;2023-04-05T10:30:38;16.05;;;9.13;;
23260;SDS011;11799;47.740;-3.390;2023-04-05T10:38:47;11.35;;;7.70;;
23260;SDS011;11799;47.740;-3.390;2023-04-05T10:41:33;12.02;;;7.70;;
23260;SDS011;11799;47.740;-3.390;2023-04-05T10:44:01;13.35;;;9.07;;
23260;SDS011;11799;47.740;-3.390;2023-04-05T10:46:28;13.88;;;8.65;;
23260;SDS011;11799;47.740;-3.390;2023-04-05T10:51:40;9.32;;;7.43;;
23260;SDS011;11799;47.740;-3.390;2023-04-05T10:54:07;16.50;;;9.10;;
23260;SDS011;11799;47.740;-3.390;2023-04-05T10:56:38;10.02;;;7.57;;
23260;SDS011;11799;47.740;-3.390;2023-04-05T10:59:04;13.18;;;8.25;;
23260;SDS011;11799;47.740;-3.390;2023-04-05T11:01:32;12.57;;;9.38;;
23260;SDS011;11799;47.740;-3.390;2023-04-05T11:04:09;15.80;;;10.45;;
23260;SDS011;11799;47.740;-3.390;2023-04-05T11:06:35;13.07;;;9.05;;
23260;SDS011;11799;47.740;-3.390;2023-04-05T11:11:40;12.93;;;8.95;;
23260;SDS011;11799;47.740;-3.390;2023-04-05T11:17:03;14.60;;;9.57;;
23260;SDS011;11799;47.740;-3.390;2023-04-05T11:22:10;13.48;;;9.43;;
23260;SDS011;11799;47.740;-3.390;2023-04-05T11:24:58;12.55;;;8.75;;
23260;SDS011;11799;47.740;-3.390;2023-04-05T11:27:32;23.33;;;13.98;;
23260;SDS011;11799;47.740;-3.390;2023-04-05T11:30:02;17.40;;;11.93;;
23260;SDS011;11799;47.740;-3.390;2023-04-05T11:32:42;12.32;;;9.43;;
23260;SDS011;11799;47.740;-3.390;2023-04-05T11:35:15;12.98;;;9.30;;
23260;SDS011;11799;47.740;-3.390;2023-04-05T11:40:23;12.77;;;9.07;;
23260;SDS011;11799;47.740;-3.390;2023-04-05T11:43:02;12.38;;;9.70;;
23260;SDS011;11799;47.740;-3.390;2023-04-05T11:45:33;14.38;;;9.50;;
23260;SDS011;11799;47.740;-3.390;2023-04-05T11:48:07;12.60;;;9.60;;
23260;SDS011;11799;47.740;-3.390;2023-04-05T11:50:37;13.60;;;9.85;;
23260;SDS011;11799;47.740;-3.390;2023-04-05T11:55:42;11.13;;;8.38;;
23260;SDS011;11799;47.740;-3.390;2023-04-05T12:00:41;12.50;;;8.98;;
23260;SDS011;11799;47.740;-3.390;2023-04-05T12:03:11;12.93;;;8.48;;
23260;SDS011;11799;47.740;-3.390;2023-04-05T12:08:16;10.38;;;8.20;;
23260;SDS011;11799;47.740;-3.390;2023-04-05T12:10:42;10.75;;;7.95;;
23260;SDS011;11799;47.740;-3.390;2023-04-05T12:13:08;10.68;;;7.63;;
23260;SDS011;11799;47.740;-3.390;2023-04-05T12:15:37;14.52;;;9.20;;
23260;SDS011;11799;47.740;-3.390;2023-04-05T12:18:10;11.13;;;8.45;;
23260;SDS011;11799;47.740;-3.390;2023-04-05T12:20:37;9.73;;;7.80;;
23260;SDS011;11799;47.740;-3.390;2023-04-05T12:23:03;12.00;;;8.25;;
23260;SDS011;11799;47.740;-3.390;2023-04-05T12:25:28;14.45;;;8.70;;
23260;SDS011;11799;47.740;-3.390;2023-04-05T12:27:54;12.05;;;8.57;;
23260;SDS011;11799;47.740;-3.390;2023-04-05T12:30:20;12.70;;;8.65;;
23260;SDS011;11799;47.740;-3.390;2023-04-05T12:32:51;8.98;;;7.68;;
23260;SDS011;11799;47.740;-3.390;2023-04-05T12:35:20;11.98;;;7.97;;
23260;SDS011;11799;47.740;-3.390;2023-04-05T12:38:00;11.32;;;8.40;;
23260;SDS011;11799;47.740;-3.390;2023-04-05T12:40:27;11.52;;;8.15;;
23260;SDS011;11799;47.740;-3.390;2023-04-05T12:42:59;17.35;;;11.32;;
23260;SDS011;11799;47.740;-3.390;2023-04-05T12:45:29;13.65;;;7.88;;
23260;SDS011;11799;47.740;-3.390;2023-04-05T12:47:58;9.32;;;6.88;;
23260;SDS011;11799;47.740;-3.390;2023-04-05T12:50:27;9.90;;;7.97;;
23260;SDS011;11799;47.740;-3.390;2023-04-05T12:52:55;11.65;;;7.78;;
23260;SDS011;11799;47.740;-3.390;2023-04-05T12:55:49;8.18;;;6.40;;
23260;SDS011;11799;47.740;-3.390;2023-04-05T12:58:15;10.50;;;7.32;;
23260;SDS011;11799;47.740;-3.390;2023-04-05T13:00:41;13.57;;;7.95;;
23260;SDS011;11799;47.740;-3.390;2023-04-05T13:03:13;9.05;;;6.45;;
23260;SDS011;11799;47.740;-3.390;2023-04-05T13:05:44;13.60;;;8.57;;
23260;SDS011;11799;47.740;-3.390;2023-04-05T13:08:10;8.70;;;7.10;;
23260;SDS011;11799;47.740;-3.390;2023-04-05T13:10:36;14.07;;;7.57;;
23260;SDS011;11799;47.740;-3.390;2023-04-05T13:13:01;6.57;;;5.47;;
23260;SDS011;11799;47.740;-3.390;2023-04-05T13:15:27;9.93;;;6.15;;
23260;SDS011;11799;47.740;-3.390;2023-04-05T13:17:52;10.82;;;6.95;;
23260;SDS011;11799;47.740;-3.390;2023-04-05T13:20:19;9.13;;;7.38;;
23260;SDS011;11799;47.740;-3.390;2023-04-05T13:22:45;7.65;;;5.88;;
23260;SDS011;11799;47.740;-3.390;2023-04-05T13:25:11;7.60;;;6.20;;
23260;SDS011;11799;47.740;-3.390;2023-04-05T13:27:37;8.70;;;5.75;;
23260;SDS011;11799;47.740;-3.390;2023-04-05T13:30:03;8.55;;;6.03;;
23260;SDS011;11799;47.740;-3.390;2023-04-05T13:32:29;9.98;;;6.97;;
23260;SDS011;11799;47.740;-3.390;2023-04-05T13:34:55;11.93;;;7.18;;
23260;SDS011;11799;47.740;-3.390;2023-04-05T13:37:20;10.52;;;7.43;;
23260;SDS011;11799;47.740;-3.390;2023-04-05T13:39:46;9.40;;;6.75;;
23260;SDS011;11799;47.740;-3.390;2023-04-05T13:42:11;8.82;;;6.63;;
23260;SDS011;11799;47.740;-3.390;2023-04-05T13:44:37;8.05;;;6.50;;
23260;SDS011;11799;47.740;-3.390;2023-04-05T13:47:02;9.48;;;6.70;;
23260;SDS011;11799;47.740;-3.390;2023-04-05T13:49:28;8.27;;;5.38;;
23260;SDS011;11799;47.740;-3.390;2023-04-05T13:51:54;9.00;;;6.50;;
23260;SDS011;11799;47.740;-3.390;2023-04-05T13:54:19;6.80;;;6.00;;
23260;SDS011;11799;47.740;-3.390;2023-04-05T13:56:45;7.30;;;6.25;;
23260;SDS011;11799;47.740;-3.390;2023-04-05T13:59:10;10.63;;;6.25;;
23260;SDS011;11799;47.740;-3.390;2023-04-05T14:01:41;7.50;;;5.57;;
23260;SDS011;11799;47.740;-3.390;2023-04-05T14:04:07;7.95;;;5.90;;
23260;SDS011;11799;47.740;-3.390;2023-04-05T14:06:33;6.88;;;5.53;;
23260;SDS011;11799;47.740;-3.390;2023-04-05T14:08:59;12.82;;;7.22;;
23260;SDS011;11799;47.740;-3.390;2023-04-05T14:11:25;14.52;;;7.35;;
23260;SDS011;11799;47.740;-3.390;2023-04-05T14:13:50;8.57;;;5.78;;
23260;SDS011;11799;47.740;-3.390;2023-04-05T14:16:16;12.32;;;6.60;;
23260;SDS011;11799;47.740;-3.390;2023-04-05T14:18:42;8.10;;;5.95;;
23260;SDS011;11799;47.740;-3.390;2023-04-05T14:21:07;7.75;;;5.85;;
23260;SDS011;11799;47.740;-3.390;2023-04-05T14:23:34;8.38;;;6.22;;
23260;SDS011;11799;47.740;-3.390;2023-04-05T14:25:59;9.48;;;7.22;;
23260;SDS011;11799;47.740;-3.390;2023-04-05T14:28:25;8.02;;;6.25;;
23260;SDS011;11799;47.740;-3.390;2023-04-05T14:30:50;12.43;;;6.40;;
23260;SDS011;11799;47.740;-3.390;2023-04-05T14:33:16;9.07;;;6.20;;
23260;SDS011;11799;47.740;-3.390;2023-04-05T14:35:42;12.07;;;7.05;;
23260;SDS011;11799;47.740;-3.390;2023-04-05T14:38:08;10.30;;;7.18;;
23260;SDS011;11799;47.740;-3.390;2023-04-05T14:40:34;11.43;;;7.25;;
23260;SDS011;11799;47.740;-3.390;2023-04-05T14:43:00;12.18;;;7.10;;
23260;SDS011;11799;47.740;-3.390;2023-04-05T14:45:26;15.98;;;7.13;;
23260;SDS011;11799;47.740;-3.390;2023-04-05T14:47:52;11.30;;;7.30;;
23260;SDS011;11799;47.740;-3.390;2023-04-05T14:50:18;8.73;;;6.40;;
23260;SDS011;11799;47.740;-3.390;2023-04-05T14:52:44;9.73;;;6.63;;
23260;SDS011;11799;47.740;-3.390;2023-04-05T14:55:10;8.27;;;5.93;;
23260;SDS011;11799;47.740;-3.390;2023-04-05T14:57:37;8.32;;;6.88;;
23260;SDS011;11799;47.740;-3.390;2023-04-05T15:00:07;11.90;;;7.03;;
23260;SDS011;11799;47.740;-3.390;2023-04-05T15:02:35;10.02;;;7.38;;
23260;SDS011;11799;47.740;-3.390;2023-04-05T15:05:02;10.27;;;6.88;;
23260;SDS011;11799;47.740;-3.390;2023-04-05T15:07:28;12.65;;;7.10;;
23260;SDS011;11799;47.740;-3.390;2023-04-05T15:09:54;11.05;;;7.28;;
23260;SDS011;11799;47.740;-3.390;2023-04-05T15:12:20;7.28;;;5.82;;
23260;SDS011;11799;47.740;-3.390;2023-04-05T15:14:45;10.65;;;6.43;;